Главная страница
METAR-TAF:

METAR-TAF

Аэропорты :

Агаджари, Иран

широта: 30-46N, долгота: 049-40E, высота над уровнем моря: 29 м

Текущие метеонаблюдения

Эта сводка был подготовлена 1 час и 29 минут назад, в 08:00 UTC
Ветер 14 Узел от северно-северо-западный
Температура 42°C
Влажность 7%
Давление 1001 hPa
Видимость 10 км и более
Нет облачности ниже 1500 м, и нет кучево-дождевой облачности

METAR: OIAG 070800Z 34014KT CAVOK 42/M01 Q1001

Время: 13:59 (09:29 UTC)


TAF: отсутствует

Метеонаблюдения и прогнозы для более 4000 аэропортов (сводки METAR и TAF).

Имеющиеся станции представлены на карте желтыми и красными точками.

Чтобы увидеть название станции, наведите на нее мышь.

Затем щелкните, чтобы увидеть метеонаблюдения и метеопрогнозы.

Управление картой: чтобы увеличить масштаб, щелкните зеленые кнопки с черным крестиком; чтобы уменьшить масштаб, щелкните зеленую кнопку с тире; для просмотра соседних карт щелкайте зеленые стрелки.


METAR-TAF: